Time;durP1;ratioP1;P1;durP2;ratioP2;P2;SDS_P1;SDS_P2;PMS_P1;PMS_P2;Temp;Humidity;BMP_temperature;BMP_pressure;BME280_temperature;BME280_humidity;BME280_pressure;Samples;Min_cycle;Max_cycle;Signal;HPM_P1;HPM_P2
2023/06/18 00:00:25;;;;;;;33.55;19.08;;;14.70;84.50;;;;;;5034524;28;20033;-66
2023/06/18 00:02:50;;;;;;;33.90;19.20;;;14.70;84.50;;;;;;5017028;28;20123;-66
2023/06/18 00:05:16;;;;;;;34.95;19.52;;;14.70;84.60;;;;;;5039398;28;20041;-66
2023/06/18 00:07:41;;;;;;;36.75;20.77;;;14.70;84.50;;;;;;5037853;28;20036;-66
2023/06/18 00:10:07;;;;;;;33.78;19.38;;;14.70;84.50;;;;;;5038485;28;20068;-66
2023/06/18 00:12:33;;;;;;;35.03;20.08;;;14.70;84.50;;;;;;5039617;28;20475;-66
2023/06/18 00:14:58;;;;;;;34.97;19.73;;;14.70;84.90;;;;;;5042876;28;20045;-65
2023/06/18 00:17:25;;;;;;;37.38;20.80;;;14.60;84.90;;;;;;5043762;28;20040;-66
2023/06/18 00:19:51;;;;;;;37.35;20.23;;;14.50;84.80;;;;;;5038795;28;20108;-66
2023/06/18 00:22:17;;;;;;;43.65;22.35;;;14.40;85.10;;;;;;5042799;28;20520;-65
2023/06/18 00:24:43;;;;;;;36.53;20.75;;;14.30;86.20;;;;;;5035525;28;20037;-66
2023/06/18 00:27:09;;;;;;;34.90;19.50;;;14.30;85.60;;;;;;5039859;28;20085;-65
2023/06/18 00:29:35;;;;;;;35.00;21.15;;;14.30;85.80;;;;;;5044823;28;20088;-65
2023/06/18 00:32:01;;;;;;;38.20;19.95;;;14.20;86.00;;;;;;5047431;28;20141;-65
2023/06/18 00:34:32;;;;;;;36.33;19.50;;;14.30;86.20;;;;;;5030600;28;20131;-66
2023/06/18 00:37:00;;;;;;;37.38;19.55;;;14.30;86.10;;;;;;5046537;28;20037;-66
2023/06/18 00:39:25;;;;;;;36.17;19.65;;;14.30;86.80;;;;;;5046785;28;20085;-66
2023/06/18 00:41:51;;;;;;;34.63;19.30;;;14.20;87.30;;;;;;5045752;28;20385;-66
2023/06/18 00:44:20;;;;;;;40.25;20.17;;;14.20;86.90;;;;;;5049227;28;20041;-66
2023/06/18 00:46:51;;;;;;;34.78;19.35;;;14.10;86.70;;;;;;5029256;28;20045;-65
2023/06/18 00:49:18;;;;;;;36.35;20.98;;;14.10;87.40;;;;;;5046117;28;20093;-66
2023/06/18 00:51:45;;;;;;;34.50;19.88;;;14.10;86.70;;;;;;5045416;28;20114;-66
2023/06/18 00:54:14;;;;;;;37.25;21.33;;;14.00;87.00;;;;;;5045810;28;20048;-66
2023/06/18 00:56:50;;;;;;;39.13;20.98;;;14.00;87.90;;;;;;5041591;28;20116;-69
2023/06/18 00:59:22;;;;;;;35.63;20.45;;;13.90;87.50;;;;;;5035047;28;20056;-65
2023/06/18 01:01:55;;;;;;;34.30;19.42;;;13.90;87.70;;;;;;5037679;28;20036;-66
2023/06/18 01:04:27;;;;;;;32.55;18.73;;;13.90;87.90;;;;;;5038250;28;20083;-66
2023/06/18 01:06:54;;;;;;;37.92;20.83;;;13.90;87.50;;;;;;5034662;28;20055;-66
2023/06/18 01:09:21;;;;;;;36.30;18.83;;;13.80;88.20;;;;;;5024079;28;20033;-66
2023/06/18 01:11:57;;;;;;;36.35;19.52;;;13.80;87.70;;;;;;5040774;28;20037;-66
2023/06/18 01:14:25;;;;;;;36.85;20.63;;;13.80;88.00;;;;;;5043010;28;20120;-66
2023/06/18 01:16:54;;;;;;;35.35;19.88;;;13.70;87.70;;;;;;5034988;28;20125;-66
2023/06/18 01:19:27;;;;;;;36.13;19.60;;;13.70;88.00;;;;;;5044706;28;20041;-65
2023/06/18 01:22:01;;;;;;;43.78;22.42;;;13.60;88.80;;;;;;5042310;28;20053;-66
2023/06/18 01:24:29;;;;;;;36.55;20.42;;;13.60;88.80;;;;;;5045103;28;20136;-66
2023/06/18 01:26:57;;;;;;;36.28;19.98;;;13.60;88.80;;;;;;5046585;28;20114;-66
2023/06/18 01:29:26;;;;;;;39.13;21.95;;;13.70;88.90;;;;;;5051133;28;20080;-67
2023/06/18 01:31:53;;;;;;;41.28;21.08;;;13.60;88.80;;;;;;5049711;28;20067;-66
2023/06/18 01:34:20;;;;;;;37.80;20.58;;;13.70;89.00;;;;;;5050692;28;20041;-66
2023/06/18 01:37:05;;;;;;;38.22;20.45;;;13.70;88.80;;;;;;5050084;28;20117;-66
2023/06/18 01:39:30;;;;;;;40.38;19.45;;;13.60;89.60;;;;;;5049246;28;20040;-67
2023/06/18 01:42:07;;;;;;;42.50;21.75;;;13.60;88.90;;;;;;5049256;28;20041;-66
2023/06/18 01:44:35;;;;;;;36.95;19.85;;;13.50;89.80;;;;;;5049227;28;20045;-66
2023/06/18 01:47:01;;;;;;;34.67;18.50;;;13.50;89.30;;;;;;5048646;28;20158;-66
2023/06/18 01:49:27;;;;;;;38.30;21.73;;;13.40;89.00;;;;;;5052694;28;20048;-66
2023/06/18 01:51:53;;;;;;;42.92;21.33;;;13.40;89.10;;;;;;5049279;28;20044;-66
2023/06/18 01:54:21;;;;;;;36.83;20.13;;;13.30;89.30;;;;;;5049052;28;20048;-66
2023/06/18 01:56:46;;;;;;;37.92;20.02;;;13.40;89.70;;;;;;5046430;28;20045;-66
2023/06/18 01:59:12;;;;;;;39.40;20.02;;;13.30;89.50;;;;;;5044412;28;20395;-66
2023/06/18 02:01:40;;;;;;;38.75;21.10;;;13.20;89.40;;;;;;5042919;28;20040;-66
2023/06/18 02:04:05;;;;;;;38.10;19.95;;;13.20;89.90;;;;;;5043023;28;20033;-66
2023/06/18 02:06:31;;;;;;;35.50;20.17;;;13.30;90.00;;;;;;5041433;28;20044;-66
2023/06/18 02:08:57;;;;;;;34.40;18.52;;;13.20;90.20;;;;;;5034227;28;20068;-66
2023/06/18 02:11:23;;;;;;;32.92;17.58;;;13.20;89.70;;;;;;5034987;28;20052;-66
2023/06/18 02:13:48;;;;;;;34.85;18.75;;;13.10;89.50;;;;;;5041365;28;20037;-66
2023/06/18 02:16:14;;;;;;;30.40;17.55;;;13.10;89.70;;;;;;5042148;28;20068;-66
2023/06/18 02:18:40;;;;;;;32.33;17.58;;;13.10;90.00;;;;;;5040350;28;20131;-66
2023/06/18 02:21:07;;;;;;;31.10;17.70;;;13.10;89.90;;;;;;5027066;28;20072;-66
2023/06/18 02:23:33;;;;;;;36.50;18.73;;;13.10;89.80;;;;;;5032196;28;20163;-67
2023/06/18 02:25:58;;;;;;;32.75;18.40;;;13.10;89.80;;;;;;5036408;28;20075;-66
2023/06/18 02:28:24;;;;;;;36.60;19.50;;;13.00;89.70;;;;;;5033402;28;20662;-66
2023/06/18 02:30:50;;;;;;;34.80;18.70;;;13.00;89.80;;;;;;5023239;28;20068;-66
2023/06/18 02:33:17;;;;;;;32.33;18.52;;;12.90;89.80;;;;;;5024829;28;20047;-66
2023/06/18 02:35:43;;;;;;;33.83;17.33;;;12.80;89.60;;;;;;5037007;28;20074;-66
2023/06/18 02:38:08;;;;;;;35.95;19.35;;;12.80;89.80;;;;;;5042349;28;20475;-66
2023/06/18 02:40:34;;;;;;;33.08;18.88;;;12.70;90.00;;;;;;5037747;28;20053;-66
2023/06/18 02:43:01;;;;;;;36.67;19.95;;;12.70;90.10;;;;;;5058373;28;20044;-66
2023/06/18 02:45:28;;;;;;;31.50;17.55;;;12.60;90.20;;;;;;5047970;28;20044;-66
2023/06/18 02:47:53;;;;;;;31.63;17.52;;;12.60;90.40;;;;;;5029039;28;20136;-65
2023/06/18 02:50:19;;;;;;;32.33;17.77;;;12.60;90.50;;;;;;5013344;28;20120;-65
2023/06/18 02:52:46;;;;;;;33.67;17.88;;;12.60;90.40;;;;;;5026898;28;20120;-66
2023/06/18 02:55:12;;;;;;;33.30;18.30;;;12.60;90.40;;;;;;5030417;28;20045;-65
2023/06/18 02:57:39;;;;;;;34.95;18.75;;;12.60;90.30;;;;;;5044944;28;20418;-66
2023/06/18 03:00:11;;;;;;;32.13;17.40;;;12.70;90.30;;;;;;5047806;28;20517;-65
2023/06/18 03:02:37;;;;;;;29.80;17.10;;;12.70;90.20;;;;;;5048536;28;20482;-66
2023/06/18 03:05:03;;;;;;;30.33;16.98;;;12.50;90.20;;;;;;5041578;28;20366;-66
2023/06/18 03:07:29;;;;;;;30.20;16.42;;;12.50;90.20;;;;;;5052183;28;20345;-66
2023/06/18 03:09:55;;;;;;;31.92;16.45;;;12.40;90.50;;;;;;5035619;28;20045;-66
2023/06/18 03:12:21;;;;;;;30.48;15.85;;;12.50;90.50;;;;;;5032046;28;20046;-65
2023/06/18 03:14:47;;;;;;;32.47;17.05;;;12.50;90.60;;;;;;5035369;28;20079;-66
2023/06/18 03:17:13;;;;;;;34.60;17.73;;;12.50;90.90;;;;;;5045272;28;20734;-66
2023/06/18 03:19:38;;;;;;;27.95;15.82;;;12.50;91.00;;;;;;5046852;28;20049;-66
2023/06/18 03:22:05;;;;;;;26.05;14.85;;;12.50;91.10;;;;;;5043154;28;20029;-66
2023/06/18 03:24:32;;;;;;;29.85;15.32;;;12.50;91.10;;;;;;5038178;28;20094;-66
2023/06/18 03:26:58;;;;;;;28.13;16.05;;;12.60;91.20;;;;;;5029233;28;20438;-66
2023/06/18 03:29:25;;;;;;;31.95;16.27;;;12.60;91.10;;;;;;5059550;28;20183;-66
2023/06/18 03:31:51;;;;;;;26.67;15.57;;;12.60;91.10;;;;;;5031501;28;20430;-66
2023/06/18 03:34:20;;;;;;;23.92;14.50;;;12.60;91.10;;;;;;5032721;28;20049;-65
2023/06/18 03:36:46;;;;;;;24.92;14.65;;;12.70;91.10;;;;;;5047127;28;20199;-66
2023/06/18 03:39:12;;;;;;;27.40;14.88;;;12.60;91.00;;;;;;5027606;28;20091;-66
2023/06/18 03:41:38;;;;;;;24.00;14.10;;;12.60;91.00;;;;;;5010411;28;20053;-67
2023/06/18 03:44:04;;;;;;;25.60;14.52;;;12.60;91.00;;;;;;5034764;28;20505;-66
2023/06/18 03:46:30;;;;;;;25.33;14.85;;;12.70;91.00;;;;;;5028848;28;20116;-65
2023/06/18 03:48:56;;;;;;;26.23;14.75;;;12.70;91.00;;;;;;5045351;28;20227;-66
2023/06/18 03:51:21;;;;;;;25.48;14.82;;;12.70;90.90;;;;;;5032103;28;20129;-66
2023/06/18 03:53:48;;;;;;;26.67;15.50;;;12.80;90.90;;;;;;5058579;28;20436;-66
2023/06/18 03:56:14;;;;;;;27.38;15.52;;;12.80;90.90;;;;;;5028145;28;20128;-66
2023/06/18 03:58:39;;;;;;;26.25;15.10;;;12.80;90.90;;;;;;5023882;28;20429;-66
2023/06/18 04:01:07;;;;;;;25.83;14.88;;;12.80;90.90;;;;;;5042983;28;20834;-66
2023/06/18 04:03:33;;;;;;;25.48;14.88;;;12.90;90.90;;;;;;5031138;28;20354;-66
2023/06/18 04:05:58;;;;;;;26.33;14.57;;;12.90;90.90;;;;;;5032409;28;20752;-67
2023/06/18 04:08:24;;;;;;;27.25;15.07;;;12.90;90.80;;;;;;5038425;28;20037;-66
2023/06/18 04:10:50;;;;;;;27.80;15.48;;;13.00;90.80;;;;;;5041228;28;20040;-66
2023/06/18 04:13:17;;;;;;;29.08;15.73;;;13.10;90.80;;;;;;5022453;28;20045;-66
2023/06/18 04:15:43;;;;;;;29.52;16.60;;;13.10;90.80;;;;;;5033956;28;20049;-67
2023/06/18 04:18:09;;;;;;;30.27;15.95;;;13.10;90.90;;;;;;5044746;28;20041;-66
2023/06/18 04:20:34;;;;;;;29.08;17.05;;;13.20;90.90;;;;;;5036225;28;20351;-67
2023/06/18 04:23:00;;;;;;;34.50;17.52;;;13.30;90.90;;;;;;5065721;28;20127;-68
2023/06/18 04:25:26;;;;;;;33.17;16.83;;;13.30;90.90;;;;;;5039214;28;20033;-66
2023/06/18 04:27:51;;;;;;;32.28;17.60;;;13.40;90.90;;;;;;5037866;28;20112;-66
2023/06/18 04:30:17;;;;;;;35.88;18.42;;;13.50;91.00;;;;;;5034961;28;20041;-66
2023/06/18 04:32:43;;;;;;;30.83;16.45;;;13.50;91.00;;;;;;5035082;28;20041;-67
2023/06/18 04:35:08;;;;;;;40.38;19.38;;;13.60;91.00;;;;;;5044916;28;20132;-66
2023/06/18 04:37:36;;;;;;;47.30;21.13;;;13.60;91.00;;;;;;5037718;28;20045;-66
2023/06/18 04:40:03;;;;;;;43.28;20.65;;;13.70;90.90;;;;;;5031343;28;20090;-66
2023/06/18 04:42:29;;;;;;;47.65;21.27;;;13.80;91.10;;;;;;5021522;28;20040;-67
2023/06/18 04:44:55;;;;;;;56.58;23.45;;;13.90;91.10;;;;;;5045041;28;20037;-65
2023/06/18 04:47:21;;;;;;;80.32;24.00;;;14.00;91.20;;;;;;5041734;28;20425;-65
2023/06/18 04:49:46;;;;;;;52.85;22.17;;;14.00;91.30;;;;;;5041115;28;20483;-65
2023/06/18 04:52:12;;;;;;;72.65;23.88;;;13.90;91.80;;;;;;5041245;28;20496;-65
2023/06/18 04:54:39;;;;;;;66.28;24.55;;;13.90;91.80;;;;;;5037055;28;20063;-63
2023/06/18 04:57:04;;;;;;;55.10;23.25;;;13.90;92.10;;;;;;5044271;28;20045;-65
2023/06/18 04:59:31;;;;;;;54.90;24.50;;;14.00;92.30;;;;;;5043659;28;20748;-66
2023/06/18 05:01:56;;;;;;;45.47;23.08;;;14.00;92.40;;;;;;5040575;28;20138;-66
2023/06/18 05:04:22;;;;;;;52.53;25.05;;;14.10;92.60;;;;;;5041114;28;20731;-66
2023/06/18 05:06:48;;;;;;;57.97;26.08;;;14.20;92.80;;;;;;5041723;28;20519;-66
2023/06/18 05:09:13;;;;;;;52.63;24.30;;;14.30;93.10;;;;;;5022307;28;20039;-66
2023/06/18 05:11:39;;;;;;;53.17;24.27;;;14.30;93.30;;;;;;5037887;28;20077;-66
2023/06/18 05:14:05;;;;;;;49.75;24.48;;;14.40;93.40;;;;;;5040832;28;20037;-67
2023/06/18 05:16:32;;;;;;;51.38;24.20;;;14.50;93.80;;;;;;5033964;28;20040;-66
2023/06/18 05:18:57;;;;;;;44.13;22.58;;;14.60;93.60;;;;;;5042008;28;20126;-66
2023/06/18 05:21:24;;;;;;;50.05;24.95;;;14.60;93.90;;;;;;5041961;28;20037;-67
2023/06/18 05:23:50;;;;;;;50.72;23.52;;;14.70;93.40;;;;;;5040362;28;20096;-66
2023/06/18 05:26:15;;;;;;;51.80;24.85;;;14.80;93.50;;;;;;5065361;28;20037;-66
2023/06/18 05:28:41;;;;;;;54.30;26.67;;;14.90;93.30;;;;;;5033981;28;20071;-66
2023/06/18 05:31:07;;;;;;;46.92;22.45;;;14.90;93.30;;;;;;5050307;28;20137;-66
2023/06/18 05:33:32;;;;;;;48.33;24.83;;;15.00;93.40;;;;;;5050683;28;20070;-65
2023/06/18 05:35:58;;;;;;;46.08;24.83;;;15.00;93.40;;;;;;5050189;28;20037;-66
2023/06/18 05:38:24;;;;;;;52.55;26.08;;;15.00;93.50;;;;;;5038059;28;20461;-66
2023/06/18 05:40:50;;;;;;;50.83;25.95;;;15.10;93.50;;;;;;5039567;28;20056;-66
2023/06/18 05:43:15;;;;;;;47.20;24.70;;;15.20;93.80;;;;;;5038911;28;20049;-67
2023/06/18 05:45:41;;;;;;;51.45;25.30;;;15.40;93.80;;;;;;5048567;28;20040;-66
2023/06/18 05:48:08;;;;;;;45.17;23.98;;;15.60;93.90;;;;;;5030941;28;20163;-66
2023/06/18 05:50:34;;;;;;;40.58;23.00;;;15.80;93.70;;;;;;5025954;28;20195;-67
2023/06/18 05:52:59;;;;;;;43.00;23.90;;;16.10;93.60;;;;;;5031071;28;20051;-67
2023/06/18 05:55:25;;;;;;;43.92;23.65;;;16.30;93.30;;;;;;5044572;28;20036;-69
2023/06/18 05:57:50;;;;;;;35.17;21.63;;;16.50;93.10;;;;;;5044888;28;20166;-67
2023/06/18 06:00:16;;;;;;;37.85;22.17;;;16.70;92.90;;;;;;5031593;28;20068;-68
2023/06/18 06:02:43;;;;;;;39.15;21.38;;;17.00;92.60;;;;;;5047236;28;20052;-67
2023/06/18 06:05:09;;;;;;;34.53;21.75;;;17.20;92.50;;;;;;5049586;28;20369;-66
2023/06/18 06:07:35;;;;;;;34.28;20.73;;;17.40;92.10;;;;;;5031881;28;20036;-67
2023/06/18 06:10:01;;;;;;;32.70;20.15;;;17.60;91.80;;;;;;5036400;28;20037;-66
2023/06/18 06:12:26;;;;;;;33.65;20.23;;;17.90;91.30;;;;;;5041524;28;20067;-67
2023/06/18 06:14:52;;;;;;;36.80;20.98;;;18.00;90.70;;;;;;5049171;28;20049;-67
2023/06/18 06:17:17;;;;;;;30.33;19.55;;;18.10;90.10;;;;;;5032266;28;20109;-67
2023/06/18 06:19:43;;;;;;;30.25;19.23;;;18.30;89.60;;;;;;5050228;28;20072;-67
2023/06/18 06:22:08;;;;;;;31.35;19.63;;;18.40;88.80;;;;;;5044425;28;20390;-66
2023/06/18 06:24:34;;;;;;;28.33;19.70;;;18.50;87.90;;;;;;5046584;28;20120;-65
2023/06/18 06:27:00;;;;;;;27.42;18.02;;;18.70;86.90;;;;;;5028587;28;20032;-65
2023/06/18 06:29:25;;;;;;;23.92;16.92;;;18.90;86.10;;;;;;5045883;28;20044;-65
2023/06/18 06:31:51;;;;;;;27.80;18.70;;;19.10;85.20;;;;;;5045555;28;21878;-66
2023/06/18 06:34:16;;;;;;;26.00;17.98;;;19.30;84.30;;;;;;5034354;28;20440;-64
2023/06/18 06:36:42;;;;;;;26.88;18.90;;;19.50;83.30;;;;;;5043423;28;20745;-66
2023/06/18 06:39:09;;;;;;;26.63;17.63;;;19.60;82.20;;;;;;5048693;28;20361;-65
2023/06/18 06:41:34;;;;;;;25.50;17.90;;;19.70;81.20;;;;;;5048217;28;20433;-65
2023/06/18 06:44:00;;;;;;;29.58;17.92;;;19.80;79.90;;;;;;5033538;28;20102;-65
2023/06/18 06:46:26;;;;;;;25.10;17.58;;;19.90;79.00;;;;;;5041868;28;20033;-65
2023/06/18 06:48:51;;;;;;;26.38;17.13;;;19.90;78.50;;;;;;5037557;28;20052;-66
2023/06/18 06:51:17;;;;;;;23.67;16.95;;;20.10;77.70;;;;;;5038524;28;20040;-66
2023/06/18 06:53:42;;;;;;;26.58;17.60;;;20.30;76.80;;;;;;5029562;28;20041;-65
2023/06/18 06:56:08;;;;;;;25.60;18.42;;;20.20;76.50;;;;;;5043629;28;20041;-65
2023/06/18 06:58:33;;;;;;;23.83;15.40;;;20.40;76.00;;;;;;5035734;28;20052;-66
2023/06/18 07:00:59;;;;;;;24.00;17.27;;;20.60;75.70;;;;;;5059737;28;20052;-65
2023/06/18 07:03:25;;;;;;;22.40;15.93;;;20.70;75.00;;;;;;5022653;28;20073;-65
2023/06/18 07:05:50;;;;;;;25.25;16.50;;;21.00;73.80;;;;;;5046983;28;20047;-66
2023/06/18 07:08:16;;;;;;;23.05;16.05;;;21.20;73.40;;;;;;5038346;28;20045;-67
2023/06/18 07:10:42;;;;;;;25.58;17.25;;;21.40;72.50;;;;;;5016460;28;20045;-66
2023/06/18 07:13:07;;;;;;;23.52;15.48;;;21.50;71.40;;;;;;5038279;28;20421;-66
2023/06/18 07:15:33;;;;;;;24.45;17.15;;;21.80;70.60;;;;;;5042369;28;20461;-64
2023/06/18 07:17:59;;;;;;;23.48;16.40;;;22.00;69.80;;;;;;5040497;28;20059;-66
2023/06/18 07:20:25;;;;;;;22.73;16.10;;;22.20;69.10;;;;;;5039785;28;20033;-67
2023/06/18 07:22:50;;;;;;;21.88;15.45;;;22.40;68.60;;;;;;5031208;28;20322;-66
2023/06/18 07:25:16;;;;;;;25.20;16.65;;;22.70;67.50;;;;;;5036052;28;20542;-70
2023/06/18 07:27:41;;;;;;;23.38;15.93;;;22.80;66.70;;;;;;5046321;28;20457;-66
2023/06/18 07:30:07;;;;;;;20.20;15.07;;;22.90;65.70;;;;;;5046350;28;20426;-66
2023/06/18 07:32:33;;;;;;;22.52;16.95;;;22.80;65.70;;;;;;5044896;28;20032;-65
2023/06/18 07:34:58;;;;;;;21.75;14.43;;;22.90;64.90;;;;;;5039164;28;20381;-65
2023/06/18 07:37:24;;;;;;;20.02;14.10;;;23.10;64.30;;;;;;5026228;28;20450;-66
2023/06/18 07:39:50;;;;;;;20.02;14.45;;;23.30;63.80;;;;;;5036986;28;20049;-66
2023/06/18 07:42:15;;;;;;;21.40;15.23;;;23.50;63.40;;;;;;5044052;28;20126;-66
2023/06/18 07:44:41;;;;;;;23.35;15.45;;;23.50;62.80;;;;;;5045114;28;20076;-66
2023/06/18 07:47:07;;;;;;;18.83;13.77;;;23.50;62.20;;;;;;5041209;28;20045;-67
2023/06/18 07:49:32;;;;;;;16.27;13.10;;;23.70;61.90;;;;;;5041708;28;20094;-66
2023/06/18 07:51:58;;;;;;;20.98;13.02;;;23.90;61.20;;;;;;5034109;28;20031;-67
2023/06/18 07:54:24;;;;;;;17.83;13.60;;;24.10;60.60;;;;;;5036494;28;20029;-67
2023/06/18 07:56:50;;;;;;;18.35;14.63;;;24.30;60.30;;;;;;5037578;28;20024;-65
2023/06/18 07:59:16;;;;;;;18.67;13.55;;;24.40;59.70;;;;;;5034630;28;20044;-67
2023/06/18 08:01:41;;;;;;;18.45;13.73;;;24.50;59.80;;;;;;5044689;28;20119;-67
2023/06/18 08:04:08;;;;;;;19.35;13.15;;;24.80;59.50;;;;;;5036691;28;20453;-68
2023/06/18 08:06:33;;;;;;;17.65;13.70;;;25.10;58.60;;;;;;5043792;28;20041;-67
2023/06/18 08:08:59;;;;;;;16.60;12.82;;;25.30;57.80;;;;;;5048217;28;20035;-68
2023/06/18 08:11:25;;;;;;;20.15;13.20;;;25.50;57.10;;;;;;5036619;28;20040;-68
2023/06/18 08:13:51;;;;;;;17.88;13.13;;;25.80;56.10;;;;;;5042745;28;20921;-67
2023/06/18 08:16:17;;;;;;;17.17;12.43;;;26.00;55.10;;;;;;5036038;28;20121;-67
2023/06/18 08:18:43;;;;;;;17.55;12.73;;;26.20;54.30;;;;;;5035850;28;20063;-66
2023/06/18 08:21:09;;;;;;;17.55;13.10;;;26.40;54.00;;;;;;5035107;28;20538;-68
2023/06/18 08:23:34;;;;;;;15.60;12.10;;;26.60;53.30;;;;;;5014955;28;20400;-66
2023/06/18 08:26:00;;;;;;;17.25;12.65;;;26.60;53.10;;;;;;5029972;28;20318;-66
2023/06/18 08:28:26;;;;;;;17.95;11.65;;;26.70;52.50;;;;;;5030838;28;20029;-68
2023/06/18 08:30:51;;;;;;;14.07;11.07;;;27.00;51.40;;;;;;5033218;28;20136;-69
2023/06/18 08:33:17;;;;;;;15.52;11.07;;;27.30;49.10;;;;;;5015615;28;20041;-67
2023/06/18 08:35:42;;;;;;;13.75;11.40;;;27.60;49.50;;;;;;5033709;28;20052;-67
2023/06/18 08:38:08;;;;;;;15.50;12.27;;;27.90;48.40;;;;;;5042295;28;20139;-69
2023/06/18 08:40:48;;;;;;;13.27;10.32;;;28.30;47.60;;;;;;5035347;28;20034;-68
2023/06/18 08:43:14;;;;;;;13.57;10.82;;;28.60;45.60;;;;;;5041223;28;20037;-66
2023/06/18 08:45:40;;;;;;;13.73;11.30;;;28.60;46.50;;;;;;5041197;28;20037;-69
2023/06/18 08:48:08;;;;;;;13.45;10.13;;;28.80;45.70;;;;;;5043584;28;20933;-68
2023/06/18 08:50:37;;;;;;;11.70;9.45;;;29.00;44.50;;;;;;5041012;28;20041;-69
2023/06/18 08:53:11;;;;;;;14.52;10.20;;;29.20;44.10;;;;;;5037109;28;20049;-68
2023/06/18 08:55:37;;;;;;;13.48;9.70;;;29.40;43.20;;;;;;5030712;28;20396;-67
2023/06/18 08:58:11;;;;;;;12.02;8.55;;;29.70;42.90;;;;;;5034244;28;20053;-69
2023/06/18 09:00:38;;;;;;;10.55;8.85;;;30.10;40.60;;;;;;5044410;28;20065;-69
2023/06/18 09:03:03;;;;;;;11.00;9.80;;;30.30;40.90;;;;;;5040475;28;20127;-69
2023/06/18 09:05:30;;;;;;;11.40;9.27;;;30.60;40.20;;;;;;5043147;28;20198;-68
2023/06/18 09:07:57;;;;;;;9.52;8.23;;;31.00;39.50;;;;;;5033770;28;20036;-71
2023/06/18 09:10:24;;;;;;;10.43;8.25;;;31.40;38.90;;;;;;5030186;28;20033;-69
2023/06/18 09:12:49;;;;;;;8.55;7.28;;;31.40;35.70;;;;;;5043411;28;20456;-68
2023/06/18 09:15:15;;;;;;;8.13;7.13;;;31.50;35.70;;;;;;5023659;28;20095;-69
2023/06/18 09:17:50;;;;;;;10.57;7.18;;;31.70;35.30;;;;;;5044226;28;20119;-69
2023/06/18 09:20:19;;;;;;;9.07;7.25;;;32.10;34.10;;;;;;5031310;28;20426;-71
2023/06/18 09:22:46;;;;;;;8.77;6.83;;;32.50;34.10;;;;;;5022808;28;20052;-69
2023/06/18 09:25:20;;;;;;;9.65;7.03;;;32.70;33.30;;;;;;5043232;28;20041;-69
2023/06/18 09:27:47;;;;;;;10.45;7.55;;;32.80;30.60;;;;;;5039113;28;20037;-68
2023/06/18 09:30:20;;;;;;;8.18;6.78;;;32.40;32.40;;;;;;5043282;28;20037;-69
2023/06/18 09:32:47;;;;;;;7.53;6.22;;;32.90;31.20;;;;;;5046783;28;20051;-68
2023/06/18 09:35:16;;;;;;;8.70;6.13;;;33.20;30.40;;;;;;5009229;28;20049;-70
2023/06/18 09:37:42;;;;;;;8.02;7.22;;;33.30;30.20;;;;;;5046289;28;20681;-70
2023/06/18 09:40:19;;;;;;;6.32;5.72;;;33.20;30.00;;;;;;5044632;28;20045;-68
2023/06/18 09:42:45;;;;;;;7.10;6.00;;;33.10;28.70;;;;;;5044849;28;20045;-68
2023/06/18 09:45:12;;;;;;;6.72;5.68;;;33.40;29.40;;;;;;5040969;28;20123;-67
2023/06/18 09:47:41;;;;;;;6.57;5.68;;;33.70;28.40;;;;;;5044977;28;20056;-69
2023/06/18 09:50:09;;;;;;;7.77;6.13;;;34.00;28.10;;;;;;5048968;28;20037;-67
2023/06/18 09:52:46;;;;;;;6.30;5.30;;;34.00;27.60;;;;;;5043738;28;20041;-70
2023/06/18 09:55:29;;;;;;;6.72;5.63;;;34.30;26.40;;;;;;5042235;28;20056;-70
2023/06/18 09:57:55;;;;;;;7.85;6.05;;;34.00;26.90;;;;;;5042913;28;20049;-68
2023/06/18 10:00:21;;;;;;;6.55;5.85;;;34.00;27.30;;;;;;5047978;28;20083;-69
2023/06/18 10:02:47;;;;;;;7.30;6.03;;;34.30;27.50;;;;;;5044793;28;20358;-67
2023/06/18 10:05:13;;;;;;;6.75;5.63;;;34.70;27.20;;;;;;5043770;28;20044;-68
2023/06/18 10:07:40;;;;;;;6.07;5.47;;;34.90;26.80;;;;;;5031500;28;20145;-70
2023/06/18 10:10:14;;;;;;;6.65;5.90;;;34.90;26.70;;;;;;5034426;28;20041;-68
2023/06/18 10:12:45;;;;;;;7.88;6.35;;;35.50;26.10;;;;;;5033833;28;20049;-67
2023/06/18 10:15:12;;;;;;;6.90;5.85;;;35.40;26.00;;;;;;5036782;28;20830;-67
2023/06/18 10:17:52;;;;;;;7.75;6.45;;;35.00;26.50;;;;;;5022391;28;20128;-70
2023/06/18 10:20:18;;;;;;;6.78;6.10;;;35.40;25.70;;;;;;5044157;28;20079;-70
2023/06/18 10:22:54;;;;;;;6.82;5.88;;;34.90;26.20;;;;;;5047702;28;20071;-70
2023/06/18 10:25:21;;;;;;;7.38;6.07;;;35.50;25.90;;;;;;5041692;28;20116;-70
2023/06/18 10:27:48;;;;;;;7.25;5.63;;;35.30;25.70;;;;;;5033397;28;20041;-68
2023/06/18 10:30:15;;;;;;;7.18;5.78;;;35.40;25.30;;;;;;5044147;28;20449;-67
2023/06/18 10:32:42;;;;;;;6.10;5.45;;;35.20;25.00;;;;;;5049560;28;20069;-68
2023/06/18 10:35:11;;;;;;;6.03;5.53;;;35.10;25.10;;;;;;5047206;28;20114;-67
2023/06/18 10:37:38;;;;;;;7.13;5.63;;;35.50;24.80;;;;;;5049196;28;20047;-69
2023/06/18 10:40:05;;;;;;;8.23;5.85;;;35.20;24.90;;;;;;5042889;28;20056;-68
2023/06/18 10:42:34;;;;;;;7.45;6.30;;;35.10;25.10;;;;;;5037381;28;20043;-68
2023/06/18 10:45:11;;;;;;;5.97;5.38;;;34.80;24.80;;;;;;5046095;28;20055;-69
2023/06/18 10:47:37;;;;;;;7.90;5.60;;;34.60;24.90;;;;;;5039804;28;20049;-68
2023/06/18 10:50:02;;;;;;;7.10;5.90;;;34.70;25.30;;;;;;5044146;28;20037;-69
2023/06/18 10:52:42;;;;;;;6.10;5.50;;;34.30;25.10;;;;;;5025793;28;20064;-67
2023/06/18 10:55:21;;;;;;;8.43;5.65;;;33.80;24.70;;;;;;5033257;28;20076;-68
2023/06/18 10:57:48;;;;;;;;;;;33.10;25.50;;;;;;5044983;28;20052;-69
2023/06/18 11:00:28;;;;;;;7.22;5.90;;;32.60;26.30;;;;;;5037656;28;19917;-68
2023/06/18 11:02:59;;;;;;;6.82;5.60;;;32.20;26.60;;;;;;5038024;28;20060;-69
2023/06/18 11:05:34;;;;;;;6.93;5.85;;;32.10;26.90;;;;;;5040156;28;20132;-68
2023/06/18 11:08:06;;;;;;;6.70;5.65;;;31.90;27.10;;;;;;5030622;28;20084;-68
2023/06/18 11:10:40;;;;;;;6.43;5.57;;;31.60;27.30;;;;;;5035521;28;20183;-69
2023/06/18 11:13:07;;;;;;;6.88;6.15;;;31.20;27.60;;;;;;5040417;28;20048;-68
2023/06/18 11:15:34;;;;;;;6.72;5.53;;;31.10;27.80;;;;;;5039398;28;20044;-67
2023/06/18 11:18:02;;;;;;;6.28;5.68;;;31.10;27.70;;;;;;5037038;28;20068;-69
2023/06/18 11:20:31;;;;;;;9.10;5.85;;;31.10;27.30;;;;;;5038839;28;20071;-68
2023/06/18 11:22:59;;;;;;;6.68;5.65;;;31.10;27.00;;;;;;5030016;28;20080;-67
2023/06/18 11:25:26;;;;;;;7.35;5.38;;;31.00;26.90;;;;;;5048919;28;20037;-68
2023/06/18 11:27:54;;;;;;;6.53;5.93;;;30.90;27.00;;;;;;5047441;28;20086;-69
2023/06/18 11:30:20;;;;;;;6.38;5.75;;;30.80;26.90;;;;;;5048424;28;20111;-69
2023/06/18 11:32:46;;;;;;;7.97;5.72;;;30.70;27.10;;;;;;5045854;28;20106;-69
2023/06/18 11:35:13;;;;;;;6.97;5.45;;;30.60;27.20;;;;;;5043114;28;20481;-69
2023/06/18 11:37:40;;;;;;;6.50;5.50;;;30.70;27.40;;;;;;5014882;28;20069;-67
2023/06/18 11:40:09;;;;;;;6.43;5.38;;;30.40;27.50;;;;;;5040097;28;20037;-68
2023/06/18 11:42:36;;;;;;;6.10;5.50;;;30.10;27.20;;;;;;5042175;28;20037;-68
2023/06/18 11:45:04;;;;;;;6.57;5.63;;;29.90;27.20;;;;;;5035465;28;20038;-68
2023/06/18 11:47:31;;;;;;;7.95;6.25;;;29.70;27.50;;;;;;5018738;28;20049;-69
2023/06/18 11:49:58;;;;;;;7.18;5.90;;;29.60;27.80;;;;;;5043966;28;20257;-68
2023/06/18 11:52:26;;;;;;;7.25;6.03;;;29.50;28.00;;;;;;5043777;28;20116;-68
2023/06/18 11:54:53;;;;;;;8.63;6.03;;;29.80;28.00;;;;;;5035756;28;20132;-67
2023/06/18 11:57:21;;;;;;;7.20;5.75;;;30.10;27.40;;;;;;5041680;28;20067;-68
2023/06/18 11:59:50;;;;;;;7.80;6.15;;;30.30;27.10;;;;;;5055201;28;20045;-68
2023/06/18 12:02:24;;;;;;;6.38;5.70;;;30.40;26.80;;;;;;5040428;28;20164;-67
2023/06/18 12:04:50;;;;;;;5.82;5.28;;;30.50;27.20;;;;;;5045917;28;20064;-67
2023/06/18 12:07:17;;;;;;;7.65;5.63;;;30.80;26.70;;;;;;5040643;28;20477;-68
2023/06/18 12:09:43;;;;;;;8.68;5.53;;;30.80;26.60;;;;;;5029526;28;20630;-69
2023/06/18 12:12:17;;;;;;;6.78;5.72;;;31.00;26.30;;;;;;5028365;28;20045;-69
2023/06/18 12:15:02;;;;;;;8.45;6.03;;;31.10;26.00;;;;;;5027166;28;20184;-70
2023/06/18 12:18:06;;;;;;;6.00;5.50;;;31.10;25.90;;;;;;5035031;28;20377;-68
2023/06/18 12:20:32;;;;;;;7.38;5.53;;;31.20;26.40;;;;;;5034178;28;20373;-65
2023/06/18 12:23:00;;;;;;;6.93;6.22;;;31.20;26.10;;;;;;5046629;28;20037;-70
2023/06/18 12:25:28;;;;;;;9.93;6.80;;;31.20;26.50;;;;;;5042867;28;20033;-70
2023/06/18 12:27:56;;;;;;;7.78;6.00;;;31.30;26.40;;;;;;5043872;28;20173;-67
2023/06/18 12:30:30;;;;;;;7.70;6.13;;;31.90;26.40;;;;;;5053735;28;20625;-68
2023/06/18 12:33:05;;;;;;;8.90;6.05;;;31.80;26.10;;;;;;5034020;28;20049;-71